Time;durP1;ratioP1;P1;durP2;ratioP2;P2;SDS_P1;SDS_P2;PMS_P1;PMS_P2;Temp;Humidity;BMP_temperature;BMP_pressure;BME280_temperature;BME280_humidity;BME280_pressure;Samples;Min_cycle;Max_cycle;Signal;HPM_P1;HPM_P2
2022/05/25 00:02:19;;;;;;;1.33;1.27;;;;;;;;;;4990672;28;20415;-71
2022/05/25 00:04:45;;;;;;;1.52;1.42;;;15.40;99.50;;;;;;4990188;28;20038;-71
2022/05/25 00:07:12;;;;;;;1.80;1.70;;;;;;;;;;4990371;28;20066;-72
2022/05/25 00:09:38;;;;;;;1.65;1.42;;;;;;;;;;4990953;28;20034;-72
2022/05/25 00:12:04;;;;;;;1.30;1.30;;;;;;;;;;4991370;28;20026;-71
2022/05/25 00:14:30;;;;;;;1.40;1.40;;;;;;;;;;4990465;28;20027;-70
2022/05/25 00:16:56;;;;;;;2.67;1.45;;;;;;;;;;4990196;28;20037;-72
2022/05/25 00:22:07;;;;;;;1.50;1.40;;;;;;;;;;4990617;28;20061;-73
2022/05/25 00:24:33;;;;;;;1.35;1.25;;;;;;;;;;4988878;28;20042;-71
2022/05/25 00:26:59;;;;;;;1.77;1.67;;;;;;;;;;4990341;28;20373;-72
2022/05/25 00:29:25;;;;;;;1.52;1.48;;;;;;;;;;4990057;28;20096;-71
2022/05/25 00:31:51;;;;;;;2.25;1.50;;;;;;;;;;4990106;28;20023;-71
2022/05/25 00:34:17;;;;;;;1.38;1.38;;;;;;;;;;4989915;28;20034;-71
2022/05/25 00:36:44;;;;;;;1.60;1.50;;;;;;;;;;4989954;28;20034;-72
2022/05/25 00:39:10;;;;;;;1.83;1.73;;;;;;;;;;4990200;28;20109;-71
2022/05/25 00:41:36;;;;;;;1.60;1.48;;;;;;;;;;4977319;28;20534;-71
2022/05/25 00:44:02;;;;;;;1.75;1.65;;;;;;;;;;4985963;28;20053;-71
2022/05/25 00:46:29;;;;;;;1.67;1.58;;;;;;;;;;4989847;28;20145;-71
2022/05/25 00:49:20;;;;;;;1.35;1.35;;;15.30;89.40;;;;;;4987783;28;20034;-71
2022/05/25 00:51:55;;;;;;;1.30;1.30;;;;;;;;;;4989098;28;20025;-71
2022/05/25 00:54:29;;;;;;;1.70;1.60;;;;;;;;;;4973909;28;20118;-72
2022/05/25 00:57:00;;;;;;;2.20;1.60;;;15.10;90.00;;;;;;4990411;28;20017;-71
2022/05/25 00:59:28;;;;;;;1.70;1.60;;;;;;;;;;4989638;28;20042;-71
2022/05/25 01:01:55;;;;;;;1.27;1.27;;;;;;;;;;4989129;28;20076;-71
2022/05/25 01:04:22;;;;;;;3.17;1.50;;;;;;;;;;4989485;28;20096;-71
2022/05/25 01:06:51;;;;;;;1.55;1.45;;;;;;;;;;4989804;28;20083;-71
2022/05/25 01:09:20;;;;;;;1.58;1.48;;;;;;;;;;4989493;28;20034;-72
2022/05/25 01:11:46;;;;;;;1.75;1.38;;;;;;;;;;4988313;28;20515;-72
2022/05/25 01:14:28;;;;;;;1.30;1.30;;;15.30;90.60;;;;;;4989161;28;20034;-72
2022/05/25 01:17:01;;;;;;;1.20;1.20;;;;;;;;;;4982664;28;20065;-72
2022/05/25 01:19:26;;;;;;;1.75;1.35;;;;;;;;;;4980339;28;20517;-71
2022/05/25 01:22:00;;;;;;;1.63;1.45;;;;;;;;;;4988799;28;20030;-72
2022/05/25 01:24:50;;;;;;;1.40;1.30;;;;;;;;;;4973199;28;20127;-71
2022/05/25 01:27:36;;;;;;;2.78;1.60;;;;;;;;;;4989353;28;20033;-72
2022/05/25 01:30:21;;;;;;;4.68;1.77;;;;;;;;;;4985708;28;20518;-71
2022/05/25 01:32:57;;;;;;;1.55;1.55;;;;;;;;;;4987791;28;20032;-71
2022/05/25 01:35:33;;;;;;;1.48;1.38;;;15.60;90.40;;;;;;4979030;28;20050;-71
2022/05/25 01:38:06;;;;;;;4.88;1.52;;;;;;;;;;4984396;28;20030;-71
2022/05/25 01:40:51;;;;;;;2.63;1.70;;;;;;;;;;4985946;28;20027;-71
2022/05/25 01:43:20;;;;;;;1.42;1.33;;;;;;;;;;4977653;28;20046;-72
2022/05/25 01:46:13;;;;;;;1.80;1.70;;;;;;;;;;4984079;28;20486;-71
2022/05/25 01:48:40;;;;;;;1.52;1.42;;;;;;;;;;4974110;28;20109;-71
2022/05/25 01:51:10;;;;;;;1.42;1.38;;;;;;;;;;4989193;28;20030;-71
2022/05/25 01:53:39;;;;;;;1.48;1.48;;;;;;;;;;4988534;28;20073;-71
2022/05/25 01:56:07;;;;;;;1.58;1.50;;;15.30;90.00;;;;;;4984957;28;20109;-71
2022/05/25 01:58:36;;;;;;;1.52;1.48;;;;;;;;;;4988294;28;20034;-72
2022/05/25 02:01:03;;;;;;;2.20;2.00;;;;;;;;;;4988257;28;20422;-72
2022/05/25 02:06:23;;;;;;;3.72;1.50;;;;;;;;;;4970017;28;20122;-71
2022/05/25 02:08:52;;;;;;;1.65;1.55;;;;;;;;;;4975665;28;20493;-71
2022/05/25 02:11:21;;;;;;;1.55;1.50;;;;;;;;;;4984795;28;20121;-71
2022/05/25 02:13:56;;;;;;;1.55;1.45;;;;;;;;;;4982678;28;20027;-72
2022/05/25 02:16:28;;;;;;;1.60;1.50;;;;;;;;;;4977530;28;20464;-72
2022/05/25 02:19:11;;;;;;;4.40;1.65;;;15.20;90.40;;;;;;4987720;28;20022;-72
2022/05/25 02:21:36;;;;;;;1.50;1.40;;;;;;;;;;4972713;28;20027;-71
2022/05/25 02:24:09;;;;;;;1.20;1.20;;;;;;;;;;4969282;28;20381;-71
2022/05/25 02:26:38;;;;;;;1.70;1.60;;;;;;;;;;4976961;28;20109;-71
2022/05/25 02:29:35;;;;;;;2.45;2.25;;;15.20;89.00;;;;;;4984053;28;20109;-72
2022/05/25 02:32:14;;;;;;;1.40;1.40;;;;;;;;;;4990918;28;20030;-71
2022/05/25 02:34:43;;;;;;;1.50;1.40;;;;;;;;;;4983720;28;20031;-71
2022/05/25 02:37:09;;;;;;;1.73;1.63;;;;;;;;;;4976902;28;20032;-71
2022/05/25 02:39:36;;;;;;;1.70;1.60;;;;;;;;;;4988016;28;20037;-71
2022/05/25 02:42:02;;;;;;;1.42;1.33;;;15.10;88.90;;;;;;4988528;28;20050;-71
2022/05/25 02:44:28;;;;;;;1.38;1.30;;;;;;;;;;4987315;28;20096;-72
2022/05/25 02:46:54;;;;;;;1.75;1.65;;;;;;;;;;4981610;28;20443;-71
2022/05/25 02:49:20;;;;;;;1.90;1.77;;;;;;;;;;4975760;28;20439;-71
2022/05/25 02:51:46;;;;;;;1.80;1.70;;;15.10;87.00;;;;;;4972891;28;20622;-72
2022/05/25 02:54:12;;;;;;;1.77;1.65;;;;;;;;;;4972011;28;20030;-72
2022/05/25 02:56:38;;;;;;;3.25;1.83;;;;;;;;;;4988183;28;20041;-71
2022/05/25 02:59:04;;;;;;;1.98;1.88;;;;;;;;;;4987289;28;20019;-71
2022/05/25 03:01:30;;;;;;;1.98;1.80;;;;;;;;;;4987524;28;20498;-72
2022/05/25 03:03:56;;;;;;;2.80;1.48;;;;;;;;;;4987515;28;20031;-71
2022/05/25 03:06:23;;;;;;;1.40;1.40;;;;;;;;;;4987083;28;20103;-71
2022/05/25 03:08:48;;;;;;;2.28;2.17;;;;;;;;;;4988465;28;20018;-71
2022/05/25 03:11:14;;;;;;;2.53;2.42;;;;;;;;;;4987383;28;20030;-71
2022/05/25 03:13:45;;;;;;;2.40;2.30;;;;;;;;;;4982701;28;20026;-71
2022/05/25 03:16:13;;;;;;;2.22;2.13;;;;;;;;;;4977013;28;20096;-72
2022/05/25 03:18:39;;;;;;;1.77;1.67;;;;;;;;;;4987174;28;20057;-71
2022/05/25 03:21:05;;;;;;;1.80;1.70;;;;;;;;;;4988360;28;20116;-72
2022/05/25 03:23:31;;;;;;;1.80;1.70;;;;;;;;;;4984928;28;20085;-71
2022/05/25 03:25:57;;;;;;;1.30;1.30;;;;;;;;;;4987193;28;20038;-71
2022/05/25 03:28:23;;;;;;;1.50;1.40;;;;;;;;;;4986953;28;20173;-72
2022/05/25 03:30:49;;;;;;;1.90;1.80;;;;;;;;;;4987409;28;20088;-72
2022/05/25 03:33:15;;;;;;;1.70;1.60;;;;;;;;;;4987175;28;20022;-71
2022/05/25 03:35:41;;;;;;;1.77;1.67;;;;;;;;;;4988069;28;20029;-71
2022/05/25 03:38:08;;;;;;;1.70;1.60;;;;;;;;;;4987075;28;20109;-72
2022/05/25 03:40:34;;;;;;;3.37;2.17;;;;;;;;;;4983085;28;20039;-71
2022/05/25 03:43:00;;;;;;;1.63;1.52;;;;;;;;;;4974412;28;20046;-71
2022/05/25 03:45:26;;;;;;;3.67;1.33;;;;;;;;;;4985602;28;20096;-72
2022/05/25 03:47:53;;;;;;;1.95;1.85;;;;;;;;;;4987566;28;20113;-72
2022/05/25 03:50:19;;;;;;;1.55;1.55;;;;;;;;;;4987133;28;20508;-71
2022/05/25 03:52:46;;;;;;;2.00;1.90;;;;;;;;;;4986593;28;20508;-73
2022/05/25 03:55:12;;;;;;;2.47;1.73;;;;;;;;;;4986523;28;20086;-72
2022/05/25 03:57:38;;;;;;;1.77;1.65;;;;;;;;;;4984305;28;20041;-71
2022/05/25 04:00:07;;;;;;;2.03;1.92;;;;;;;;;;4972220;28;20035;-71
2022/05/25 04:02:33;;;;;;;1.90;1.80;;;;;;;;;;4982242;28;20042;-71
2022/05/25 04:05:08;;;;;;;1.95;1.85;;;;;;;;;;4990420;28;20049;-72
2022/05/25 04:07:35;;;;;;;2.50;2.40;;;;;;;;;;4990342;28;20037;-71
2022/05/25 04:10:01;;;;;;;3.13;2.97;;;;;;;;;;4990371;28;20030;-72
2022/05/25 04:12:27;;;;;;;3.13;2.92;;;;;;;;;;4990111;28;20026;-72
2022/05/25 04:14:54;;;;;;;3.45;3.35;;;;;;;;;;4991269;28;20030;-71
2022/05/25 04:17:20;;;;;;;2.63;2.50;;;;;;;;;;4989814;28;20029;-72
2022/05/25 04:19:46;;;;;;;2.05;1.95;;;;;;;;;;4989731;28;20030;-71
2022/05/25 04:22:11;;;;;;;1.98;1.88;;;;;;;;;;4990280;28;20085;-71
2022/05/25 04:24:37;;;;;;;1.60;1.60;;;;;;;;;;4989918;28;20045;-72
2022/05/25 04:27:04;;;;;;;2.05;1.95;;;;;;;;;;4975658;28;20026;-71
2022/05/25 04:29:30;;;;;;;1.92;1.83;;;;;;;;;;4989911;28;20022;-72
2022/05/25 04:31:56;;;;;;;1.85;1.75;;;;;;;;;;4989625;28;20048;-70
2022/05/25 04:34:22;;;;;;;2.03;1.92;;;;;;;;;;4989958;28;20054;-72
2022/05/25 04:36:48;;;;;;;1.80;1.70;;;;;;;;;;4990007;28;20030;-71
2022/05/25 04:39:14;;;;;;;5.25;3.20;;;;;;;;;;4989823;28;20026;-71
2022/05/25 04:41:41;;;;;;;5.10;2.90;;;;;;;;;;4990563;28;20038;-71
2022/05/25 04:44:07;;;;;;;3.22;2.40;;;;;;;;;;4989553;28;20061;-71
2022/05/25 04:46:33;;;;;;;2.50;1.92;;;;;;;;;;4989376;28;20034;-71
2022/05/25 04:49:00;;;;;;;1.52;1.42;;;;;;;;;;4989282;28;20022;-71
2022/05/25 04:51:27;;;;;;;1.60;1.50;;;;;;;;;;4989517;28;20035;-71
2022/05/25 04:53:53;;;;;;;1.90;1.80;;;;;;;;;;4990167;28;20035;-71
2022/05/25 04:59:04;;;;;;;1.23;1.23;;;;;;;;;;4989581;28;20116;-71
2022/05/25 05:01:30;;;;;;;3.60;1.77;;;;;;;;;;4984532;28;20640;-71
2022/05/25 05:03:57;;;;;;;1.83;1.40;;;;;;;;;;4985520;28;20478;-71
2022/05/25 05:06:23;;;;;;;1.55;1.50;;;;;;;;;;4985906;28;20046;-71
2022/05/25 05:08:49;;;;;;;1.33;1.33;;;;;;;;;;4987542;28;20018;-71
2022/05/25 05:11:16;;;;;;;2.58;2.17;;;;;;;;;;4988287;28;20442;-70
2022/05/25 05:13:42;;;;;;;1.30;1.30;;;;;;;;;;4986532;28;20037;-71
2022/05/25 05:16:09;;;;;;;1.73;1.63;;;;;;;;;;4987719;28;20026;-71
2022/05/25 05:18:35;;;;;;;1.40;1.40;;;;;;;;;;4987088;28;20022;-71
2022/05/25 05:21:01;;;;;;;7.43;1.42;;;;;;;;;;4987766;28;20653;-71
2022/05/25 05:23:27;;;;;;;1.50;1.40;;;;;;;;;;4985640;28;20066;-71
2022/05/25 05:25:53;;;;;;;1.45;1.45;;;;;;;;;;4985615;28;20084;-71
2022/05/25 05:28:21;;;;;;;1.38;1.38;;;;;;;;;;4986550;28;20038;-71
2022/05/25 05:30:52;;;;;;;1.50;1.40;;;;;;;;;;4986636;28;20035;-71
2022/05/25 05:33:18;;;;;;;1.70;1.60;;;;;;;;;;4985711;28;20037;-72
2022/05/25 05:35:46;;;;;;;3.50;2.15;;;;;;;;;;4980568;28;20485;-71
2022/05/25 05:38:13;;;;;;;1.58;1.48;;;;;;;;;;4983613;28;20431;-71
2022/05/25 05:40:39;;;;;;;1.33;1.27;;;;;;;;;;4985994;28;20038;-72
2022/05/25 05:43:06;;;;;;;1.20;1.20;;;;;;;;;;4985429;28;20630;-71
2022/05/25 05:45:35;;;;;;;1.17;1.17;;;;;;;;;;4986458;28;20117;-71
2022/05/25 05:48:13;;;;;;;1.48;1.38;;;;;;;;;;4989114;28;20069;-71
2022/05/25 05:50:40;;;;;;;4.70;2.00;;;;;;;;;;4989122;28;20092;-71
2022/05/25 05:53:07;;;;;;;2.85;1.60;;;;;;;;;;4987562;28;20049;-78
2022/05/25 05:55:34;;;;;;;1.60;1.50;;;;;;;;;;4988207;28;20088;-77
2022/05/25 05:58:00;;;;;;;2.05;1.88;;;;;;;;;;4988785;28;20048;-77
2022/05/25 06:00:26;;;;;;;2.00;1.83;;;14.50;92.10;;;;;;4987911;28;20890;-77
2022/05/25 06:02:52;;;;;;;3.55;2.13;;;;;;;;;;4966562;28;20125;-78
2022/05/25 06:05:18;;;;;;;2.00;1.83;;;;;;;;;;4984852;28;20093;-77
2022/05/25 06:07:44;;;;;;;4.90;1.67;;;;;;;;;;4986801;28;20031;-74
2022/05/25 06:10:10;;;;;;;2.80;1.95;;;;;;;;;;4985643;28;20109;-76
2022/05/25 06:12:37;;;;;;;3.05;2.13;;;;;;;;;;4986306;28;20034;-76
2022/05/25 06:19:25;;;;;;;2.40;2.30;;;;;;;;;;4985640;28;20034;-75
2022/05/25 06:20:34;;;;;;;36.83;4.38;;;;;;;;;;4976509;28;20062;-74
2022/05/25 06:23:00;;;;;;;2.78;2.67;;;;;;;;;;4982472;28;20135;-75
2022/05/25 06:25:27;;;;;;;3.95;3.67;;;;;;;;;;4985672;28;20038;-69
2022/05/25 06:27:53;;;;;;;3.60;3.40;;;;;;;;;;4986863;28;20410;-70
2022/05/25 06:30:19;;;;;;;4.30;3.60;;;;;;;;;;4987624;28;20054;-70
2022/05/25 06:32:45;;;;;;;4.28;3.97;;;;;;;;;;4974231;28;20058;-69
2022/05/25 06:35:11;;;;;;;5.13;4.72;;;;;;;;;;4983903;28;20254;-70
2022/05/25 06:37:37;;;;;;;5.55;4.70;;;;;;;;;;4986898;28;20030;-71
2022/05/25 06:40:03;;;;;;;4.63;4.22;;;;;;;;;;4986527;28;20037;-70
2022/05/25 06:42:29;;;;;;;2.47;1.40;;;;;;;;;;4986092;28;20133;-70
2022/05/25 06:44:55;;;;;;;2.08;0.52;;;;;;;;;;4986227;28;20038;-71
2022/05/25 06:47:22;;;;;;;0.65;0.25;;;;;;;;;;4985859;28;20116;-70
2022/05/25 06:49:52;;;;;;;0.68;0.30;;;;;;;;;;4984089;28;20034;-73
2022/05/25 06:52:18;;;;;;;2.47;0.30;;;;;;;;;;4985217;28;20113;-70
2022/05/25 06:54:44;;;;;;;1.70;0.32;;;;;;;;;;4971627;28;20034;-75
2022/05/25 06:57:10;;;;;;;0.20;0.20;;;;;;;;;;4985110;28;20038;-74
2022/05/25 06:59:37;;;;;;;3.15;0.95;;;;;;;;;;4984908;28;20088;-73
2022/05/25 07:02:03;;;;;;;1.60;1.15;;;;;;;;;;4984227;28;20120;-73
2022/05/25 07:04:29;;;;;;;6.03;4.35;;;;;;;;;;4985826;28;20046;-73
2022/05/25 07:06:55;;;;;;;1.02;0.08;;;;;;;;;;4986416;28;20022;-73
2022/05/25 07:09:21;;;;;;;0.63;0.10;;;;;;;;;;4970870;28;20566;-74
2022/05/25 07:11:51;;;;;;;1.00;0.52;;;;;;;;;;4985310;28;20118;-73
2022/05/25 07:14:16;;;;;;;2.00;0.20;;;24.00;67.40;;;;;;4986548;28;20109;-71
2022/05/25 07:16:42;;;;;;;0.98;0.15;;;;;;;;;;4986319;28;20114;-72
2022/05/25 07:19:08;;;;;;;0.77;0.20;;;;;;;;;;4986246;28;20048;-72
2022/05/25 07:21:34;;;;;;;;;;;;;;;;;;4971603;28;20605;-77
2022/05/25 07:24:01;;;;;;;0.17;0.10;;;25.10;46.40;;;;;;4971893;28;19914;-77
2022/05/25 07:26:29;;;;;;;0.75;0.10;;;25.20;47.90;;;;;;4985861;28;20575;-77
2022/05/25 07:28:55;;;;;;;0.65;0.10;;;25.60;45.50;;;;;;4986146;28;20030;-72
2022/05/25 07:31:21;;;;;;;;;;;;;;;;;;4986242;28;20118;-73
2022/05/25 07:33:49;;;;;;;1.20;0.10;;;;;;;;;;4985294;28;20343;-71
2022/05/25 07:36:15;;;;;;;0.30;0.22;;;;;;;;;;4968816;28;20026;-75
2022/05/25 07:38:42;;;;;;;;;;;;;;;;;;4984101;28;20038;-74
2022/05/25 07:41:08;;;;;;;3.20;0.30;;;;;;;;;;4986822;28;19914;-74
2022/05/25 07:43:35;;;;;;;1.02;0.10;;;;;;;;;;4986634;28;20030;-76
2022/05/25 07:46:01;;;;;;;0.20;0.20;;;;;;;;;;4979565;28;20081;-74
2022/05/25 07:48:27;;;;;;;;;;;;;;;;;;4984195;28;20038;-74
2022/05/25 07:50:53;;;;;;;3.00;0.20;;;;;;;;;;4979304;28;20264;-75
2022/05/25 07:56:03;;;;;;;11.00;0.43;;;;;;;;;;4975878;28;19920;-74
2022/05/25 07:58:32;;;;;;;3.22;0.10;;;;;;;;;;4985336;28;20031;-74
2022/05/25 08:01:00;;;;;;;4.85;0.32;;;;;;;;;;4986067;28;20045;-75
2022/05/25 08:06:11;;;;;;;0.73;0.20;;;;;;;;;;4980302;28;20100;-77
2022/05/25 08:08:37;;;;;;;0.35;0.20;;;;;;;;;;4979445;28;20026;-74
2022/05/25 08:11:10;;;;;;;4.40;0.20;;;;;;;;;;4981432;28;20026;-74
2022/05/25 08:13:38;;;;;;;0.40;0.00;;;;;;;;;;4987586;28;20026;-74
2022/05/25 08:16:04;;;;;;;0.00;0.00;;;;;;;;;;4980551;28;20019;-74
2022/05/25 08:18:30;;;;;;;1.50;0.20;;;;;;;;;;4985669;28;20129;-75
2022/05/25 08:20:56;;;;;;;0.43;0.17;;;;;;;;;;4989479;28;20033;-73
2022/05/25 08:23:22;;;;;;;2.13;0.45;;;;;;;;;;4987033;28;20109;-74
2022/05/25 08:25:48;;;;;;;0.35;0.20;;;;;;;;;;4979976;28;20088;-73
2022/05/25 08:28:15;;;;;;;0.73;0.25;;;;;;;;;;4986569;28;20443;-72
2022/05/25 08:30:41;;;;;;;1.20;0.45;;;;;;;;;;4986184;28;20031;-73
2022/05/25 08:33:07;;;;;;;0.50;0.50;;;;;;;;;;4984643;28;20026;-73
2022/05/25 08:35:33;;;;;;;1.63;0.43;;;;;;;;;;4981243;28;20026;-74
2022/05/25 08:37:59;;;;;;;0.10;0.10;;;22.10;54.60;;;;;;4985779;28;20565;-74
2022/05/25 08:40:26;;;;;;;0.40;0.40;;;;;;;;;;4982888;28;20031;-74
2022/05/25 08:43:04;;;;;;;3.40;0.30;;;;;;;;;;4986625;28;20062;-73
2022/05/25 08:45:42;;;;;;;0.95;0.43;;;;;;;;;;4977696;28;20050;-70
2022/05/25 08:48:10;;;;;;;0.85;0.28;;;;;;;;;;4980875;28;20042;-72
2022/05/25 08:50:37;;;;;;;2.00;0.10;;;;;;;;;;4985974;28;20058;-76
2022/05/25 08:53:03;;;;;;;0.00;0.00;;;;;;;;;;4982424;28;20221;-80
2022/05/25 08:55:32;;;;;;;2.40;0.47;;;;;;;;;;4986400;28;20057;-81
2022/05/25 08:58:00;;;;;;;7.63;0.47;;;23.70;46.30;;;;;;4976445;28;20139;-81
2022/05/25 09:00:26;;;;;;;0.40;0.38;;;;;;;;;;4988412;28;20038;-81
2022/05/25 09:03:07;;;;;;;0.20;0.10;;;;;;;;;;4986614;28;20030;-80
2022/05/25 09:05:39;;;;;;;0.90;0.57;;;;;;;;;;4984043;28;20120;-80
2022/05/25 09:08:08;;;;;;;2.13;0.50;;;;;;;;;;4985107;28;20105;-78
2022/05/25 09:10:37;;;;;;;0.57;0.40;;;;;;;;;;4986826;28;20547;-79
2022/05/25 09:13:13;;;;;;;0.75;0.20;;;;;;;;;;4989066;28;20160;-79
2022/05/25 09:16:15;;;;;;;0.20;0.20;;;;;;;;;;4988906;28;20023;-78
2022/05/25 09:18:33;;;;;;;0.55;0.20;;;;;;;;;;4989040;28;20051;-78
2022/05/25 09:21:01;;;;;;;1.38;0.20;;;;;;;;;;4990663;28;20035;-78
2022/05/25 09:23:28;;;;;;;1.27;0.43;;;;;;;;;;4977615;28;20575;-78
2022/05/25 09:25:54;;;;;;;0.82;0.40;;;29.10;39.40;;;;;;4985112;28;20146;-78
2022/05/25 09:28:23;;;;;;;0.20;0.20;;;29.80;37.30;;;;;;4987794;28;20061;-79
2022/05/25 09:30:57;;;;;;;0.25;0.10;;;29.50;36.90;;;;;;4986424;28;20036;-78
2022/05/25 09:33:34;;;;;;;3.58;0.30;;;27.90;38.50;;;;;;4989055;28;20117;-79
2022/05/25 09:36:03;;;;;;;0.82;0.10;;;;;;;;;;4989779;28;20031;-78
2022/05/25 09:38:31;;;;;;;0.40;0.30;;;;;;;;;;4981114;28;20035;-78
2022/05/25 09:41:04;;;;;;;0.10;0.10;;;26.80;42.00;;;;;;4987343;28;20503;-78
2022/05/25 09:43:31;;;;;;;0.30;0.05;;;;;;;;;;4986014;28;20073;-78
2022/05/25 09:46:05;;;;;;;0.80;0.63;;;;;;;;;;4982899;28;20111;-78
2022/05/25 09:48:33;;;;;;;0.13;0.10;;;;;;;;;;4987902;28;20043;-78
2022/05/25 09:51:05;;;;;;;;;;;24.90;43.20;;;;;;4988379;28;20026;-78
2022/05/25 09:53:35;;;;;;;0.10;0.10;;;;;;;;;;4983219;28;20302;-77
2022/05/25 09:56:21;;;;;;;0.10;0.10;;;;;;;;;;4988331;28;20030;-78
2022/05/25 09:58:51;;;;;;;1.25;0.30;;;;;;;;;;4983539;28;20061;-77
2022/05/25 10:01:32;;;;;;;0.10;0.10;;;;;;;;;;4979074;28;20037;-78
2022/05/25 10:04:00;;;;;;;0.10;0.10;;;28.10;42.30;;;;;;4988572;28;20420;-78
2022/05/25 10:06:35;;;;;;;0.13;0.13;;;28.90;39.90;;;;;;4982037;28;20026;-79
2022/05/25 10:09:09;;;;;;;0.28;0.15;;;;;;;;;;4989742;28;20114;-78
2022/05/25 10:11:59;;;;;;;0.50;0.05;;;29.80;37.20;;;;;;4985470;28;20770;-79
2022/05/25 10:14:30;;;;;;;0.30;0.05;;;30.20;36.70;;;;;;4973965;28;20492;-79
2022/05/25 10:17:09;;;;;;;0.28;0.10;;;30.30;34.50;;;;;;4983144;28;20049;-78
2022/05/25 10:19:47;;;;;;;0.00;0.00;;;30.30;35.80;;;;;;4984654;28;20042;-80
2022/05/25 10:22:44;;;;;;;1.88;0.10;;;30.90;36.60;;;;;;4982356;28;20042;-78
2022/05/25 10:25:23;;;;;;;0.82;0.22;;;;;;;;;;4983794;28;20047;-78
2022/05/25 10:27:49;;;;;;;0.40;0.13;;;;;;;;;;4985938;28;20535;-78
2022/05/25 10:39:28;;;;;;;0.73;0.30;;;26.20;42.20;;;;;;4984874;28;20409;-79
2022/05/25 10:41:59;;;;;;;2.20;0.20;;;;;;;;;;4979541;28;20039;-78
2022/05/25 10:44:27;;;;;;;0.60;0.60;;;;;;;;;;4987679;28;20104;-78
2022/05/25 10:46:55;;;;;;;1.20;0.30;;;;;;;;;;4987059;28;20029;-78
2022/05/25 10:49:25;;;;;;;0.38;0.20;;;;;;;;;;4981951;28;20037;-79
2022/05/25 10:51:54;;;;;;;0.40;0.20;;;;;;;;;;4973592;28;20121;-79
2022/05/25 10:57:47;;;;;;;2.58;0.10;;;28.10;38.00;;;;;;4984376;28;20443;-79
2022/05/25 11:00:38;;;;;;;0.10;0.10;;;28.10;41.50;;;;;;4980979;28;20036;-78
2022/05/25 11:03:32;;;;;;;2.88;0.20;;;;;;;;;;4983527;28;20018;-79
2022/05/25 11:06:10;;;;;;;0.35;0.10;;;;;;;;;;4988775;28;20035;-78
2022/05/25 11:08:37;;;;;;;0.00;0.00;;;;;;;;;;4985023;28;20566;-78
2022/05/25 11:11:12;;;;;;;0.20;0.20;;;;;;;;;;4981324;28;20034;-78
2022/05/25 11:13:47;;;;;;;0.00;0.00;;;;;;;;;;4984023;28;20522;-79
2022/05/25 11:16:31;;;;;;;1.95;0.10;;;26.00;40.30;;;;;;4989757;28;20125;-78
2022/05/25 11:18:57;;;;;;;0.57;0.40;;;;;;;;;;4989076;28;20479;-77
2022/05/25 11:21:23;;;;;;;1.33;0.25;;;;;;;;;;4988649;28;20102;-78
2022/05/25 11:24:19;;;;;;;1.15;0.40;;;24.60;44.40;;;;;;4989568;28;20041;-78
2022/05/25 11:27:12;;;;;;;0.50;0.35;;;;;;;;;;4979274;28;20046;-78
2022/05/25 11:29:40;;;;;;;0.52;0.25;;;;;;;;;;5008321;28;20478;-78
2022/05/25 11:32:06;;;;;;;0.17;0.15;;;;;;;;;;5008129;28;20053;-78
2022/05/25 11:34:38;;;;;;;0.88;0.20;;;;;;;;;;5007840;28;20050;-78
2022/05/25 11:37:23;;;;;;;1.80;0.38;;;;;;;;;;5008126;28;20084;-77
2022/05/25 11:39:59;;;;;;;0.47;0.20;;;;;;;;;;5002760;28;20037;-78
2022/05/25 11:42:24;;;;;;;1.73;1.20;;;;;;;;;;5008229;28;20061;-78
2022/05/25 11:44:59;;;;;;;1.77;0.20;;;24.70;43.80;;;;;;5008941;28;20041;-78
2022/05/25 11:47:36;;;;;;;0.35;0.30;;;24.70;42.20;;;;;;5007120;28;20053;-78
2022/05/25 11:50:17;;;;;;;;;;;24.70;42.90;;;;;;5007908;28;20515;-78
2022/05/25 11:52:50;;;;;;;0.17;0.17;;;24.50;44.20;;;;;;5007474;28;20290;-78
2022/05/25 11:55:16;;;;;;;0.40;0.30;;;;;;;;;;5007267;28;20588;-79
2022/05/25 11:57:43;;;;;;;0.45;0.43;;;;;;;;;;5007910;28;20033;-77
2022/05/25 12:00:09;;;;;;;;;;;;;;;;;;5008797;28;20038;-78
2022/05/25 12:02:45;;;;;;;0.40;0.20;;;;;;;;;;5008106;28;19963;-79
2022/05/25 12:05:19;;;;;;;4.20;0.30;;;;;;;;;;5007170;28;20042;-78
2022/05/25 12:08:02;;;;;;;0.40;0.20;;;24.50;41.30;;;;;;4966715;28;20546;-78
2022/05/25 12:10:37;;;;;;;9.27;0.52;;;;;;;;;;4961912;28;20039;-79
2022/05/25 12:13:07;;;;;;;0.68;0.30;;;;;;;;;;4971140;28;20030;-78
2022/05/25 12:15:51;;;;;;;0.38;0.38;;;;;;;;;;4962713;28;20023;-78
2022/05/25 12:18:36;;;;;;;0.32;0.20;;;;;;;;;;4968633;28;20034;-77
2022/05/25 12:21:04;;;;;;;1.40;0.57;;;;;;;;;;4969884;28;20050;-79
2022/05/25 12:23:36;;;;;;;0.65;0.32;;;;;;;;;;4959102;28;20041;-78
2022/05/25 12:26:26;;;;;;;1.40;0.30;;;24.40;43.50;;;;;;4966258;28;20039;-78
2022/05/25 12:28:53;;;;;;;2.65;0.30;;;;;;;;;;4965266;28;20065;-78
2022/05/25 12:31:22;;;;;;;2.13;1.17;;;;;;;;;;4963043;28;20054;-78
2022/05/25 12:33:48;;;;;;;1.92;0.43;;;;;;;;;;4967232;28;20037;-78
2022/05/25 12:36:16;;;;;;;0.20;0.20;;;;;;;;;;4965174;28;20038;-78
2022/05/25 12:38:42;;;;;;;0.22;0.22;;;;;;;;;;4968915;28;20570;-78
2022/05/25 12:41:25;;;;;;;0.20;0.20;;;;;;;;;;4968699;28;20085;-79
2022/05/25 12:43:54;;;;;;;0.52;0.43;;;;;;;;;;4984192;28;20031;-79
2022/05/25 12:49:32;;;;;;;0.93;0.40;;;;;;;;;;4987785;28;20100;-78
2022/05/25 12:51:57;;;;;;;0.28;0.28;;;24.60;62.80;;;;;;4982252;28;20038;-78
2022/05/25 12:54:24;;;;;;;2.03;0.45;;;;;;;;;;4984834;28;20019;-78
2022/05/25 12:56:51;;;;;;;0.60;0.40;;;;;;;;;;4985882;28;20039;-78
2022/05/25 12:59:29;;;;;;;0.65;0.30;;;24.10;44.50;;;;;;4989625;28;20575;-78
2022/05/25 13:02:07;;;;;;;0.38;0.38;;;;;;;;;;4989226;28;20057;-79
2022/05/25 13:04:42;;;;;;;0.38;0.30;;;;;;;;;;4981853;28;20587;-79
2022/05/25 13:07:36;;;;;;;0.52;0.52;;;;;;;;;;4979382;28;20124;-78
2022/05/25 13:10:06;;;;;;;0.95;0.50;;;;;;;;;;4983491;28;20033;-79
2022/05/25 13:12:44;;;;;;;2.28;0.68;;;;;;;;;;4981310;28;20045;-78
2022/05/25 13:15:17;;;;;;;0.73;0.73;;;22.70;46.90;;;;;;4987223;28;20023;-78
2022/05/25 13:17:53;;;;;;;0.65;0.55;;;;;;;;;;4985288;28;20511;-79
2022/05/25 13:20:29;;;;;;;2.72;0.63;;;;;;;;;;4984535;28;20022;-78
2022/05/25 13:22:55;;;;;;;1.50;0.80;;;;;;;;;;4988559;28;20030;-78
2022/05/25 13:25:24;;;;;;;0.70;0.70;;;;;;;;;;4987942;28;20034;-78
2022/05/25 13:27:53;;;;;;;0.90;0.88;;;;;;;;;;4986326;28;20396;-78
2022/05/25 13:30:42;;;;;;;0.98;0.98;;;;;;;;;;4982752;28;20488;-79
2022/05/25 13:33:20;;;;;;;2.05;0.75;;;22.70;46.10;;;;;;4985826;28;20085;-78
2022/05/25 13:35:52;;;;;;;2.17;0.70;;;;;;;;;;4989128;28;20037;-79
2022/05/25 13:38:18;;;;;;;1.42;1.33;;;;;;;;;;4988780;28;20053;-78
2022/05/25 13:40:47;;;;;;;3.13;1.02;;;;;;;;;;4984761;28;20038;-79
2022/05/25 13:43:18;;;;;;;0.40;0.40;;;23.00;46.50;;;;;;4975963;28;20431;-79
2022/05/25 13:45:46;;;;;;;0.70;0.40;;;;;;;;;;4981544;28;20062;-78
2022/05/25 13:48:23;;;;;;;3.83;0.75;;;;;;;;;;4980503;28;20443;-78
2022/05/25 13:50:56;;;;;;;0.55;0.55;;;23.00;43.90;;;;;;4989006;28;20476;-78
2022/05/25 13:53:30;;;;;;;0.60;0.40;;;;;;;;;;4986188;28;20064;-79
2022/05/25 13:56:04;;;;;;;2.83;0.80;;;;;;;;;;4981329;28;20483;-78
2022/05/25 13:58:30;;;;;;;1.15;0.50;;;;;;;;;;4988100;28;20099;-79
2022/05/25 14:00:56;;;;;;;1.25;0.60;;;;;;;;;;4988369;28;20053;-78
2022/05/25 14:03:29;;;;;;;0.90;0.63;;;;;;;;;;4975215;28;20022;-78
2022/05/25 14:06:00;;;;;;;0.60;0.60;;;;;;;;;;4983279;28;20027;-78
2022/05/25 14:11:16;;;;;;;0.82;0.80;;;;;;;;;;4982132;28;20045;-78
2022/05/25 14:13:42;;;;;;;1.42;0.80;;;;;;;;;;4988248;28;20026;-78
2022/05/25 14:16:22;;;;;;;0.60;0.60;;;;;;;;;;4988134;28;20045;-78
2022/05/25 14:18:52;;;;;;;3.10;0.60;;;;;;;;;;4972936;28;20033;-78
2022/05/25 14:21:36;;;;;;;0.43;0.43;;;;;;;;;;4987853;28;20034;-78
2022/05/25 14:24:07;;;;;;;0.82;0.60;;;;;;;;;;4977685;28;20027;-79
2022/05/25 14:26:36;;;;;;;2.00;0.90;;;22.80;46.50;;;;;;4984548;28;20026;-79
2022/05/25 14:29:05;;;;;;;2.05;0.73;;;;;;;;;;4983884;28;20480;-77
2022/05/25 14:31:33;;;;;;;2.05;0.85;;;;;;;;;;4987740;28;20080;-78
2022/05/25 14:34:09;;;;;;;0.40;0.40;;;23.20;46.30;;;;;;4987417;28;20045;-79
2022/05/25 14:36:36;;;;;;;2.00;0.85;;;;;;;;;;4987522;28;20037;-79
2022/05/25 14:39:02;;;;;;;26.23;1.47;;;;;;;;;;4974257;28;20027;-78
2022/05/25 14:41:46;;;;;;;1.73;1.47;;;;;;;;;;4985800;28;20300;-78
2022/05/25 14:44:33;;;;;;;1.38;0.75;;;;;;;;;;4978248;28;20045;-78
2022/05/25 14:47:00;;;;;;;1.52;0.40;;;;;;;;;;4979053;28;20463;-78
2022/05/25 14:49:28;;;;;;;1.45;0.60;;;;;;;;;;4984988;28;20114;-78
2022/05/25 14:51:57;;;;;;;4.18;1.83;;;;;;;;;;4987199;28;20057;-78
2022/05/25 14:54:24;;;;;;;3.42;0.50;;;;;;;;;;4979886;28;20046;-78
2022/05/25 14:56:51;;;;;;;0.20;0.20;;;;;;;;;;4988077;28;20030;-78
2022/05/25 14:59:35;;;;;;;0.30;0.30;;;23.90;43.90;;;;;;4987926;28;20038;-77
2022/05/25 15:02:02;;;;;;;1.92;1.70;;;;;;;;;;4982619;28;20023;-78
2022/05/25 15:04:35;;;;;;;0.57;0.40;;;;;;;;;;4985568;28;20483;-78
2022/05/25 15:07:02;;;;;;;0.80;0.60;;;;;;;;;;4985319;28;20027;-78
2022/05/25 15:09:42;;;;;;;2.47;0.50;;;23.40;43.40;;;;;;4987866;28;20034;-78
2022/05/25 15:12:24;;;;;;;4.30;0.50;;;23.20;43.50;;;;;;4985311;28;20030;-77
2022/05/25 15:20:48;;;;;;;1.40;0.82;;;;;;;;;;4978312;28;20495;-79
2022/05/25 15:23:34;;;;;;;2.42;1.00;;;;;;;;;;4981817;28;20110;-78
2022/05/25 15:26:29;;;;;;;0.85;0.85;;;;;;;;;;4983852;28;20038;-77